Cypress Gardens, Louisiana
Current Conditions -  °F | °C
As of 3:53 AM on Sunday 21 Dec 2014 (Local Time) from KNEW Reporting Station
Overcast Overcast  
Wind Chill: 54°   Ceiling: 1200
Heat Index: 54°   Visibility: 10mi
Dew Point: 47°   Wind: 10mph
Humidity: 77%   Direction: 80°E
Pressure: 30.13"   Gusts: NA
Location:  29.9486°N, 89.8975°W
Report Text: KNEW 210953Z AUTO 08009KT 10SM OVC012 12/08 A3013 RMK AO2 SLP195 T01220083 TSNO
Loading
Personal Weather Stations






























Interactive Weather Map New forecast layout! Learn more

10-Day Weather Forecast

Advertisements
Track Severe Weather on mobile